Time;durP1;ratioP1;P1;durP2;ratioP2;P2;SDS_P1;SDS_P2;PMS_P1;PMS_P2;Temp;Humidity;BMP_temperature;BMP_pressure;BME280_temperature;BME280_humidity;BME280_pressure;Samples;Min_cycle;Max_cycle;Signal;HPM_P1;HPM_P2
2021/12/02 00:00:33;;;;;;;8.00;4.90;;;;;;;6.48;81.97;97500.48;126722;1310;108936;-82
2021/12/02 00:03:46;;;;;;;6.90;5.10;;;;;;;6.49;81.92;97496.55;127034;1307;108698;-82
2021/12/02 00:06:51;;;;;;;75.20;33.00;;;;;;;6.47;82.11;97501.41;126991;1308;109712;-78
2021/12/02 00:09:57;;;;;;;16.00;8.70;;;;;;;6.44;81.93;97495.89;126834;1309;108933;-77
2021/12/02 00:13:03;;;;;;;22.00;11.70;;;;;;;6.44;82.01;97502.09;126649;1309;108366;-80
2021/12/02 00:16:18;;;;;;;9.30;5.90;;;;;;;6.45;82.11;97501.91;126652;1309;108679;-78
2021/12/02 00:23:28;;;;;;;7.70;5.30;;;;;;;6.46;81.93;97497.41;126938;1307;108790;-79
2021/12/02 00:26:35;;;;;;;7.00;5.00;;;;;;;6.43;81.77;97487.41;127033;1307;108735;-79
2021/12/02 00:29:42;;;;;;;7.40;4.70;;;;;;;6.39;81.87;97492.36;126971;1312;108629;-80
2021/12/02 00:32:48;;;;;;;5.90;4.10;;;;;;;6.36;81.81;97488.80;126999;1307;107172;-80
2021/12/02 00:35:54;;;;;;;6.40;4.10;;;;;;;6.37;81.99;97483.75;126713;1309;108634;-80
2021/12/02 00:39:04;;;;;;;7.00;4.20;;;;;;;6.40;81.97;97476.27;126807;1307;109141;-79
2021/12/02 00:42:12;;;;;;;6.60;4.20;;;;;;;6.44;81.70;97481.23;126950;1312;108854;-80
2021/12/02 00:45:19;;;;;;;5.90;4.30;;;;;;;6.45;81.72;97481.64;127006;1309;108782;-81
2021/12/02 00:48:24;;;;;;;5.40;3.60;;;;;;;6.46;81.50;97482.62;127171;1307;109016;-81
2021/12/02 00:51:31;;;;;;;4.70;3.40;;;;;;;6.46;81.78;97480.59;127396;1307;109027;-80
2021/12/02 00:54:42;;;;;;;9.40;5.30;;;;;;;6.49;81.82;97482.16;127761;1307;108918;-80
2021/12/02 00:57:48;;;;;;;9.20;6.20;;;;;;;6.55;81.79;97471.94;127531;1310;108824;-77
2021/12/02 01:00:54;;;;;;;7.60;4.60;;;;;;;6.55;81.36;97470.85;127349;1309;108657;-78
2021/12/02 01:04:01;;;;;;;6.60;4.20;;;;;;;6.55;81.27;97480.64;127991;1309;109603;-78
2021/12/02 01:07:07;;;;;;;5.80;4.10;;;;;;;6.53;81.13;97481.60;127436;1307;108725;-78
2021/12/02 01:10:13;;;;;;;4.50;3.10;;;;;;;6.49;81.13;97482.23;127007;1307;108718;-79
2021/12/02 01:13:19;;;;;;;4.80;3.20;;;;;;;6.48;81.37;97485.89;127240;1309;108930;-79
2021/12/02 01:16:25;;;;;;;4.80;3.20;;;;;;;6.48;81.41;97490.95;127329;1307;108964;-79
2021/12/02 01:19:30;;;;;;;6.40;3.20;;;;;;;6.51;81.35;97489.75;127062;1307;109699;-79
2021/12/02 01:22:39;;;;;;;4.60;3.00;;;;;;;6.57;81.26;97490.23;127077;1312;109126;-78
2021/12/02 01:25:49;;;;;;;4.90;3.10;;;;;;;6.60;81.26;97479.52;126994;1307;107897;-78
2021/12/02 01:28:55;;;;;;;5.20;3.50;;;;;;;6.60;81.06;97474.95;127075;1308;109729;-76
2021/12/02 01:32:06;;;;;;;5.30;3.10;;;;;;;6.56;81.04;97467.85;126930;1310;108415;-77
2021/12/02 01:35:12;;;;;;;5.10;3.10;;;;;;;6.51;80.96;97461.09;126975;1308;108905;-79
2021/12/02 01:38:22;;;;;;;5.70;3.30;;;;;;;6.49;80.81;97458.76;126797;1310;108996;-78
2021/12/02 01:41:28;;;;;;;6.00;3.20;;;;;;;6.48;81.05;97468.33;127033;1310;108787;-77
2021/12/02 01:44:39;;;;;;;5.80;3.00;;;;;;;6.47;80.83;97462.82;126754;1309;107708;-79
2021/12/02 01:47:51;;;;;;;4.50;3.00;;;;;;;6.45;81.05;97467.54;126740;1307;108107;-76
2021/12/02 01:51:05;;;;;;;4.30;3.00;;;;;;;6.39;80.72;97475.05;126685;1309;108805;-78
2021/12/02 01:54:13;;;;;;;4.30;2.70;;;;;;;6.31;80.95;97466.86;126870;1307;108735;-78
2021/12/02 01:57:34;;;;;;;3.60;2.50;;;;;;;6.23;80.78;97470.10;126977;1309;108963;-79
2021/12/02 02:00:44;;;;;;;4.20;2.60;;;;;;;6.20;80.90;97476.16;127091;1307;109045;-79
2021/12/02 02:03:52;;;;;;;4.60;2.70;;;;;;;6.20;80.69;97471.92;126671;1312;108760;-78
2021/12/02 02:07:00;;;;;;;4.30;2.60;;;;;;;6.22;80.71;97472.90;126922;1309;108645;-78
2021/12/02 02:10:07;;;;;;;4.60;2.90;;;;;;;6.24;80.66;97459.10;126994;1309;108795;-78
2021/12/02 02:13:13;;;;;;;4.30;2.80;;;;;;;6.22;80.59;97459.49;126897;1307;108853;-78
2021/12/02 02:16:19;;;;;;;4.60;2.80;;;;;;;6.21;80.90;97459.62;126401;1309;108762;-77
2021/12/02 02:19:29;;;;;;;3.70;2.40;;;;;;;6.25;80.66;97457.51;126606;1307;108832;-76
2021/12/02 02:22:35;;;;;;;4.70;2.50;;;;;;;6.30;80.92;97451.16;126692;1309;106600;-76
2021/12/02 02:25:42;;;;;;;4.70;2.50;;;;;;;6.36;80.60;97455.31;126874;1309;108882;-76
2021/12/02 02:28:47;;;;;;;3.40;2.70;;;;;;;6.39;80.50;97448.36;126796;1309;108970;-78
2021/12/02 02:31:54;;;;;;;4.20;3.00;;;;;;;6.40;80.44;97446.32;126518;1309;109032;-77
2021/12/02 02:34:59;;;;;;;4.40;3.00;;;;;;;6.39;80.39;97446.64;126955;1309;108749;-77
2021/12/02 02:38:05;;;;;;;3.40;2.60;;;;;;;6.33;80.41;97447.34;127019;1307;108708;-79
2021/12/02 02:41:11;;;;;;;3.60;2.60;;;;;;;6.27;80.36;97451.09;127018;1307;108783;-78
2021/12/02 02:44:17;;;;;;;4.80;2.90;;;;;;;6.24;80.49;97433.48;126994;1309;108850;-77
2021/12/02 02:47:25;;;;;;;4.70;2.70;;;;;;;6.24;80.43;97438.53;127028;1307;108507;-78
2021/12/02 02:50:32;;;;;;;4.90;2.90;;;;;;;6.25;80.54;97440.20;126987;1309;107750;-78
2021/12/02 02:53:38;;;;;;;3.50;2.40;;;;;;;6.23;80.19;97438.56;127040;1307;108656;-78
2021/12/02 02:56:49;;;;;;;4.40;2.70;;;;;;;6.20;80.28;97440.01;126950;1307;108894;-78
2021/12/02 03:00:07;;;;;;;4.20;2.90;;;;;;;6.13;80.25;97435.90;127070;1307;108673;-77
2021/12/02 03:03:24;;;;;;;3.40;2.00;;;;;;;6.07;80.14;97431.52;126798;1309;108804;-78
2021/12/02 03:06:36;;;;;;;2.80;2.00;;;;;;;6.07;80.10;97426.13;126560;1309;109989;-76
2021/12/02 03:09:57;;;;;;;3.30;2.30;;;;;;;6.09;80.08;97420.64;126765;1309;106941;-78
2021/12/02 03:13:13;;;;;;;3.60;2.20;;;;;;;6.13;80.14;97424.30;126929;1312;106914;-77
2021/12/02 03:16:44;;;;;;;3.80;2.20;;;;;;;6.12;79.90;97423.91;127044;1307;107810;-77
2021/12/02 03:19:50;;;;;;;2.80;2.10;;;;;;;6.07;80.00;97430.77;126946;1309;108699;-79
2021/12/02 03:22:55;;;;;;;2.50;1.90;;;;;;;6.02;79.83;97439.20;126999;1309;108531;-80
2021/12/02 03:26:01;;;;;;;3.10;2.10;;;;;;;5.98;79.87;97441.91;127146;1307;108677;-79
2021/12/02 03:29:08;;;;;;;3.80;1.90;;;;;;;5.97;79.79;97444.48;127045;1309;106883;-79
2021/12/02 03:32:13;;;;;;;4.00;2.00;;;;;;;5.99;79.62;97445.29;126978;1308;108522;-79
2021/12/02 03:35:19;;;;;;;3.40;2.10;;;;;;;6.01;79.60;97442.20;126892;1309;108753;-76
2021/12/02 03:38:24;;;;;;;3.90;2.00;;;;;;;6.01;79.06;97440.05;126928;1309;108992;-76
2021/12/02 03:41:30;;;;;;;4.00;1.80;;;;;;;5.99;79.11;97445.38;126946;1308;108927;-76
2021/12/02 03:44:35;;;;;;;3.40;1.80;;;;;;;5.95;79.08;97448.52;126979;1307;108988;-76
2021/12/02 03:47:40;;;;;;;2.70;1.70;;;;;;;5.90;78.96;97462.02;126368;1310;175918;-75
2021/12/02 03:50:46;;;;;;;2.20;1.60;;;;;;;5.86;79.02;97461.48;126798;1307;109076;-76
2021/12/02 03:53:52;;;;;;;2.90;1.80;;;;;;;5.85;79.14;97466.21;127015;1307;107893;-74
2021/12/02 03:56:57;;;;;;;2.10;1.60;;;;;;;5.85;79.19;97470.53;126700;1309;108933;-77
2021/12/02 04:00:04;;;;;;;2.50;1.60;;;;;;;5.87;79.10;97476.15;126483;1308;108825;-77
2021/12/02 04:03:17;;;;;;;3.40;2.10;;;;;;;5.86;78.92;97483.28;126672;1310;109046;-78
2021/12/02 04:06:23;;;;;;;2.70;1.70;;;;;;;5.85;78.98;97490.91;126646;1309;108783;-77
2021/12/02 04:09:35;;;;;;;3.00;1.90;;;;;;;5.82;79.09;97498.38;127016;1307;108787;-77
2021/12/02 04:12:50;;;;;;;2.80;2.00;;;;;;;5.76;78.98;97498.90;127069;1312;108787;-77
2021/12/02 04:16:00;;;;;;;3.80;2.20;;;;;;;5.72;78.63;97494.47;126968;1309;108538;-77
2021/12/02 04:19:07;;;;;;;2.50;1.70;;;;;;;5.72;78.84;97491.27;126792;1307;108593;-76
2021/12/02 04:22:12;;;;;;;3.10;1.80;;;;;;;5.76;78.25;97497.97;126508;1308;108769;-76
2021/12/02 04:25:18;;;;;;;2.90;1.70;;;;;;;5.80;78.07;97502.77;126462;1309;109035;-77
2021/12/02 04:28:24;;;;;;;2.30;1.60;;;;;;;5.80;78.22;97504.00;126657;1307;108899;-78
2021/12/02 04:31:29;;;;;;;2.20;1.30;;;;;;;5.79;77.90;97503.77;126658;1308;108985;-77
2021/12/02 04:34:35;;;;;;;2.40;1.50;;;;;;;5.77;77.80;97510.80;126487;1307;108896;-76
2021/12/02 04:37:40;;;;;;;2.90;1.50;;;;;;;5.74;77.93;97514.02;126492;1313;108744;-77
2021/12/02 04:40:46;;;;;;;58.70;18.40;;;;;;;5.68;78.09;97519.59;126639;1307;109177;-76
2021/12/02 04:43:51;;;;;;;96.60;35.10;;;;;;;5.65;77.72;97520.17;126454;1309;108782;-77
2021/12/02 04:46:57;;;;;;;125.40;42.20;;;;;;;5.65;77.57;97519.85;126346;1309;108896;-76
2021/12/02 04:50:02;;;;;;;141.30;47.10;;;;;;;5.69;77.68;97526.52;126479;1309;108525;-76
2021/12/02 04:53:08;;;;;;;72.90;26.10;;;;;;;5.72;77.34;97525.89;126678;1307;107822;-76
2021/12/02 04:56:13;;;;;;;43.70;16.00;;;;;;;5.72;77.06;97527.20;126677;1308;108770;-76
2021/12/02 04:59:18;;;;;;;54.20;19.20;;;;;;;5.71;76.88;97532.16;126645;1310;108836;-76
2021/12/02 05:02:24;;;;;;;58.80;19.80;;;;;;;5.68;77.22;97539.24;126370;1309;108962;-76
2021/12/02 05:05:31;;;;;;;19.40;7.10;;;;;;;5.63;76.78;97543.72;126678;1307;108826;-76
2021/12/02 05:08:36;;;;;;;24.60;10.80;;;;;;;5.58;76.52;97548.59;126448;1307;109751;-76
2021/12/02 05:11:41;;;;;;;50.90;22.70;;;;;;;5.54;76.80;97557.50;126651;1307;108767;-76
2021/12/02 05:14:47;;;;;;;13.00;7.80;;;;;;;5.54;76.90;97562.84;126335;1309;108687;-77
2021/12/02 05:17:52;;;;;;;5.10;3.10;;;;;;;5.59;76.87;97561.02;126673;1308;108734;-77
2021/12/02 05:20:59;;;;;;;5.10;2.50;;;;;;;5.62;76.92;97566.09;126688;1307;108746;-76
2021/12/02 05:24:05;;;;;;;2.70;1.90;;;;;;;5.63;76.61;97566.42;126474;1313;106763;-76
2021/12/02 05:27:12;;;;;;;5.00;3.10;;;;;;;5.64;76.36;97570.26;126366;1309;109226;-76
2021/12/02 05:30:17;;;;;;;4.90;3.10;;;;;;;5.61;76.37;97574.10;126569;1310;108917;-75
2021/12/02 05:33:23;;;;;;;3.10;1.70;;;;;;;5.58;76.46;97575.52;126690;1307;109005;-75
2021/12/02 05:36:28;;;;;;;2.90;1.80;;;;;;;5.56;76.40;97577.63;127088;1307;109044;-77
2021/12/02 05:39:34;;;;;;;3.20;1.70;;;;;;;5.48;76.16;97579.70;127083;1307;107696;-76
2021/12/02 05:42:39;;;;;;;2.30;1.20;;;;;;;5.41;75.93;97589.21;127132;1306;108745;-75
2021/12/02 05:45:45;;;;;;;2.30;1.60;;;;;;;5.38;75.93;97594.71;127008;1307;108726;-76
2021/12/02 05:48:50;;;;;;;2.40;1.10;;;;;;;5.38;75.25;97595.54;126851;1306;108841;-76
2021/12/02 05:51:55;;;;;;;3.70;1.20;;;;;;;5.39;75.57;97603.16;126931;1307;109852;-76
2021/12/02 05:55:01;;;;;;;4.30;1.50;;;;;;;5.37;75.07;97611.59;126864;1307;108730;-76
2021/12/02 05:58:07;;;;;;;4.00;1.90;;;;;;;5.33;75.19;97616.79;127009;1306;108756;-76
2021/12/02 06:01:13;;;;;;;6.10;1.80;;;;;;;5.28;74.95;97624.77;126533;1309;108795;-79
2021/12/02 06:04:18;;;;;;;4.90;2.20;;;;;;;5.22;74.95;97634.54;126626;1306;108940;-77
2021/12/02 06:07:24;;;;;;;54.20;29.10;;;;;;;5.15;74.95;97636.04;126656;1306;108908;-77
2021/12/02 06:10:30;;;;;;;228.30;105.40;;;;;;;5.08;74.61;97633.05;126730;1306;108783;-76
2021/12/02 06:13:37;;;;;;;98.20;50.70;;;;;;;5.01;74.62;97639.14;126597;1306;108670;-75
2021/12/02 06:16:43;;;;;;;15.90;8.70;;;;;;;4.94;74.37;97652.86;126600;1312;108803;-75
2021/12/02 06:19:48;;;;;;;7.70;3.40;;;;;;;4.88;73.31;97661.23;126618;1306;108734;-75
2021/12/02 06:22:54;;;;;;;8.40;2.90;;;;;;;4.87;73.05;97667.73;126624;1306;109783;-76
2021/12/02 06:26:00;;;;;;;4.20;1.70;;;;;;;4.87;72.84;97679.68;126655;1306;108881;-77
2021/12/02 06:29:05;;;;;;;3.90;1.60;;;;;;;4.86;72.17;97682.13;126601;1306;108853;-77
2021/12/02 06:32:11;;;;;;;5.00;1.00;;;;;;;4.83;72.25;97691.23;126620;1306;108766;-77
2021/12/02 06:35:17;;;;;;;5.40;3.40;;;;;;;4.81;72.90;97690.11;126787;1306;108733;-77
2021/12/02 06:38:22;;;;;;;2.80;1.50;;;;;;;4.76;73.15;97696.00;126639;1306;108851;-77
2021/12/02 06:41:28;;;;;;;4.30;1.30;;;;;;;4.71;72.71;97706.37;126754;1312;107412;-77
2021/12/02 06:44:33;;;;;;;3.80;1.30;;;;;;;4.67;73.13;97711.35;126643;1306;108946;-77
2021/12/02 06:47:39;;;;;;;3.90;1.60;;;;;;;4.64;73.20;97706.86;126604;1306;108792;-76
2021/12/02 06:50:45;;;;;;;2.60;1.20;;;;;;;4.59;72.78;97702.89;127045;1307;108993;-76
2021/12/02 06:53:52;;;;;;;5.70;1.50;;;;;;;4.56;72.60;97704.41;126770;1307;109009;-77
2021/12/02 06:56:57;;;;;;;4.10;1.40;;;;;;;4.52;72.89;97712.80;126413;1309;107561;-76
2021/12/02 07:00:07;;;;;;;3.40;1.20;;;;;;;4.50;72.91;97706.66;126456;1309;108924;-76
2021/12/02 07:03:13;;;;;;;2.40;1.10;;;;;;;4.54;72.65;97697.63;126583;1309;108619;-76
2021/12/02 07:06:18;;;;;;;5.10;1.50;;;;;;;4.61;72.43;97696.49;126747;1309;108731;-75
2021/12/02 07:09:23;;;;;;;5.50;1.30;;;;;;;4.67;72.19;97696.63;126500;1309;108908;-75
2021/12/02 07:12:32;;;;;;;3.00;1.20;;;;;;;4.71;72.04;97706.22;126596;1309;107740;-76
2021/12/02 07:15:42;;;;;;;2.10;1.10;;;;;;;4.73;71.40;97705.59;126698;1309;107544;-77
2021/12/02 07:18:54;;;;;;;4.40;1.40;;;;;;;4.75;71.70;97705.13;126606;1312;108664;-76
2021/12/02 07:21:59;;;;;;;2.90;1.30;;;;;;;4.74;71.90;97712.96;126667;1309;108654;-76
2021/12/02 07:25:05;;;;;;;2.40;1.10;;;;;;;4.73;71.48;97720.09;126823;1309;108799;-77
2021/12/02 07:28:13;;;;;;;2.90;1.00;;;;;;;4.74;71.33;97718.27;126837;1309;108787;-76
2021/12/02 07:31:20;;;;;;;3.10;1.10;;;;;;;4.73;71.34;97729.56;126723;1309;108726;-77
2021/12/02 07:34:27;;;;;;;2.80;1.00;;;;;;;4.74;71.29;97732.67;126958;1310;106659;-76
2021/12/02 07:37:33;;;;;;;2.60;1.00;;;;;;;4.76;71.41;97737.24;126753;1313;107961;-76
2021/12/02 07:40:41;;;;;;;3.10;1.10;;;;;;;4.76;71.49;97734.20;126709;1313;108906;-76
2021/12/02 07:43:46;;;;;;;2.30;1.00;;;;;;;4.78;71.51;97737.30;126965;1309;108679;-77
2021/12/02 07:46:52;;;;;;;2.20;1.10;;;;;;;4.79;71.12;97737.91;126723;1309;108690;-76
2021/12/02 07:49:57;;;;;;;2.00;1.20;;;;;;;4.80;71.29;97737.12;126734;1313;108991;-76
2021/12/02 07:53:06;;;;;;;3.30;1.20;;;;;;;4.80;70.95;97736.47;126748;1309;108873;-76
2021/12/02 07:56:15;;;;;;;3.40;1.30;;;;;;;4.82;70.44;97742.50;126443;1309;108806;-76
2021/12/02 07:59:21;;;;;;;6.70;3.40;;;;;;;4.83;71.01;97746.19;126518;1309;107050;-76
2021/12/02 08:02:33;;;;;;;14.40;6.90;;;;;;;4.86;71.39;97756.20;126639;1314;108734;-76
2021/12/02 08:05:38;;;;;;;38.00;17.70;;;;;;;4.94;70.93;97762.39;126604;1310;108800;-76
2021/12/02 08:08:46;;;;;;;53.90;24.70;;;;;;;5.04;70.40;97765.40;126469;1309;107825;-75
2021/12/02 08:11:53;;;;;;;13.80;6.60;;;;;;;5.15;70.51;97768.77;126515;1309;108907;-75
2021/12/02 08:14:59;;;;;;;22.80;11.30;;;;;;;5.22;69.82;97771.45;126417;1309;108825;-75
2021/12/02 08:18:04;;;;;;;9.50;5.40;;;;;;;5.27;69.65;97782.55;126532;1309;108866;-75
2021/12/02 08:21:10;;;;;;;8.90;4.20;;;;;;;5.29;70.47;97788.39;126553;1307;107288;-75
2021/12/02 08:24:15;;;;;;;4.60;2.30;;;;;;;5.32;69.84;97788.77;126474;1309;108883;-75
2021/12/02 08:27:22;;;;;;;4.20;2.30;;;;;;;5.32;69.40;97793.19;126560;1309;108985;-76
2021/12/02 08:30:29;;;;;;;5.90;2.40;;;;;;;5.32;69.16;97798.33;126688;1312;108708;-75
2021/12/02 08:33:34;;;;;;;3.80;1.60;;;;;;;5.31;67.94;97812.50;126418;1309;108720;-75
2021/12/02 08:36:46;;;;;;;4.40;1.90;;;;;;;5.31;67.56;97812.67;126511;1313;108900;-75
2021/12/02 08:39:52;;;;;;;4.60;1.40;;;;;;;5.32;68.49;97815.93;126589;1309;108752;-77
2021/12/02 08:42:59;;;;;;;3.60;2.00;;;;;;;5.31;67.71;97826.60;126772;1309;108709;-76
2021/12/02 08:46:05;;;;;;;5.00;1.60;;;;;;;5.31;67.51;97835.73;126577;1307;108923;-76
2021/12/02 08:49:10;;;;;;;3.60;1.40;;;;;;;5.34;68.31;97840.05;126431;1309;107784;-76
2021/12/02 08:52:15;;;;;;;3.30;0.90;;;;;;;5.35;66.16;97844.91;126663;1309;108858;-76
2021/12/02 08:55:23;;;;;;;2.70;1.00;;;;;;;5.34;66.10;97844.68;126519;1313;108902;-76
2021/12/02 08:58:28;;;;;;;3.10;1.10;;;;;;;5.33;67.17;97849.27;126870;1308;109000;-77
2021/12/02 09:01:34;;;;;;;3.90;1.60;;;;;;;5.36;67.83;97850.08;126620;1309;108945;-76
2021/12/02 09:04:39;;;;;;;3.50;1.70;;;;;;;5.42;67.97;97854.73;126671;1309;108947;-76
2021/12/02 09:07:45;;;;;;;3.40;1.80;;;;;;;5.55;67.90;97858.52;126575;1309;108757;-76
2021/12/02 09:10:50;;;;;;;4.90;2.20;;;;;;;5.70;68.44;97854.56;126601;1309;108781;-76
2021/12/02 09:13:58;;;;;;;6.20;2.50;;;;;;;5.79;68.52;97856.23;126948;1308;108763;-76
2021/12/02 09:17:04;;;;;;;5.10;1.70;;;;;;;5.87;68.21;97851.98;127015;1314;109020;-77
2021/12/02 09:20:14;;;;;;;3.10;1.60;;;;;;;5.99;68.58;97850.02;126978;1309;108606;-77
2021/12/02 09:23:20;;;;;;;6.20;2.40;;;;;;;6.08;68.70;97849.86;127049;1310;108888;-77
2021/12/02 09:26:25;;;;;;;5.40;1.90;;;;;;;6.13;68.32;97857.91;126825;1309;109002;-76
2021/12/02 09:29:31;;;;;;;6.20;2.40;;;;;;;6.19;68.15;97853.14;126845;1309;108805;-77
2021/12/02 09:32:38;;;;;;;6.20;3.90;;;;;;;6.25;67.93;97852.93;127005;1308;109262;-77
2021/12/02 09:35:43;;;;;;;4.30;2.10;;;;;;;6.30;67.76;97853.25;126841;1312;108720;-76
2021/12/02 09:38:49;;;;;;;16.70;10.60;;;;;;;6.33;67.62;97855.52;126962;1309;108918;-78
2021/12/02 09:41:55;;;;;;;22.90;12.90;;;;;;;6.35;67.39;97856.52;126981;1309;108763;-77
2021/12/02 09:45:01;;;;;;;42.20;21.30;;;;;;;6.30;67.42;97848.27;126982;1309;108850;-77
2021/12/02 09:48:08;;;;;;;17.20;8.30;;;;;;;6.24;66.46;97847.09;126989;1309;108430;-77
2021/12/02 09:51:19;;;;;;;18.30;11.00;;;;;;;6.21;66.78;97843.34;127035;1308;108821;-76
2021/12/02 09:54:27;;;;;;;11.20;7.30;;;;;;;6.21;66.43;97850.44;127048;1310;108520;-77
2021/12/02 09:57:37;;;;;;;6.70;3.80;;;;;;;6.24;66.92;97849.79;127032;1310;108507;-76
2021/12/02 10:00:46;;;;;;;6.90;3.30;;;;;;;6.22;66.34;97854.00;126999;1312;108606;-76
2021/12/02 10:03:58;;;;;;;5.80;3.10;;;;;;;6.15;65.94;97851.05;126947;1309;108649;-76
2021/12/02 10:07:12;;;;;;;4.90;2.00;;;;;;;6.07;65.54;97851.44;126996;1307;108725;-76
2021/12/02 10:10:27;;;;;;;3.30;1.70;;;;;;;6.01;64.96;97859.05;126639;1309;107490;-76
2021/12/02 10:13:44;;;;;;;14.60;3.90;;;;;;;5.96;65.13;97859.45;126654;1309;108750;-76
2021/12/02 10:16:52;;;;;;;3.90;1.70;;;;;;;5.93;65.33;97858.88;126784;1309;108705;-77
2021/12/02 10:20:18;;;;;;;3.50;1.80;;;;;;;5.92;64.32;97865.70;127015;1309;108957;-76
2021/12/02 10:23:27;;;;;;;4.10;1.50;;;;;;;5.88;65.02;97867.85;126969;1309;108711;-77
2021/12/02 10:26:37;;;;;;;7.20;4.30;;;;;;;5.87;64.40;97868.66;127040;1313;109607;-77
2021/12/02 10:29:46;;;;;;;10.60;6.30;;;;;;;5.90;65.34;97863.10;126798;1309;107407;-75
2021/12/02 10:32:54;;;;;;;6.80;3.30;;;;;;;5.94;64.95;97874.63;126700;1315;108821;-76
2021/12/02 10:36:00;;;;;;;5.50;2.20;;;;;;;5.94;64.49;97867.40;126937;1309;108798;-77
2021/12/02 10:39:13;;;;;;;4.90;2.00;;;;;;;5.93;64.72;97868.52;127044;1306;107752;-77
2021/12/02 10:42:24;;;;;;;4.80;2.20;;;;;;;5.94;64.69;97876.92;127042;1306;106631;-75
2021/12/02 10:45:31;;;;;;;4.80;1.80;;;;;;;5.97;64.64;97879.05;126876;1310;107719;-77
2021/12/02 10:48:48;;;;;;;4.00;2.00;;;;;;;5.99;65.14;97882.77;126905;1310;107522;-77
2021/12/02 10:51:55;;;;;;;12.70;7.90;;;;;;;5.96;64.12;97884.29;126629;1312;108829;-77
2021/12/02 10:55:04;;;;;;;8.80;4.60;;;;;;;5.90;63.37;97889.57;126816;1306;109756;-78
2021/12/02 10:58:09;;;;;;;5.60;3.00;;;;;;;5.88;64.28;97882.91;126692;1309;108738;-76
2021/12/02 11:01:41;;;;;;;6.10;3.50;;;;;;;5.87;64.22;97891.45;127016;1313;108895;-77
2021/12/02 11:04:49;;;;;;;5.30;2.60;;;;;;;5.83;63.41;97889.71;126759;1312;109472;-77
2021/12/02 11:07:56;;;;;;;4.10;1.60;;;;;;;5.82;63.71;97889.73;126700;1306;108551;-77
2021/12/02 11:11:02;;;;;;;8.90;5.10;;;;;;;5.83;63.22;97887.86;127109;1307;108895;-77
2021/12/02 11:14:14;;;;;;;18.80;11.90;;;;;;;5.84;63.64;97893.48;126693;1306;109185;-76
2021/12/02 11:17:19;;;;;;;15.00;8.80;;;;;;;5.83;63.62;97897.65;126520;1309;109334;-77
2021/12/02 11:20:27;;;;;;;4.30;2.20;;;;;;;5.85;63.99;97894.92;126905;1306;109102;-77
2021/12/02 11:23:45;;;;;;;15.20;11.40;;;;;;;5.82;62.11;97888.60;126916;1312;108889;-77
2021/12/02 11:27:12;;;;;;;8.50;3.20;;;;;;;5.78;62.06;97890.25;126911;1306;108948;-76
2021/12/02 11:30:20;;;;;;;5.60;2.50;;;;;;;5.74;61.98;97894.63;126801;1309;109207;-77
2021/12/02 11:33:32;;;;;;;3.60;2.20;;;;;;;5.73;62.43;97900.71;126629;1308;108917;-76
2021/12/02 11:36:37;;;;;;;4.80;1.90;;;;;;;5.72;62.20;97901.86;126714;1312;108983;-76
2021/12/02 11:39:43;;;;;;;3.70;1.60;;;;;;;5.72;61.68;97906.30;126685;1312;107979;-76
2021/12/02 11:42:50;;;;;;;4.80;1.30;;;;;;;5.76;61.85;97911.84;126653;1312;106934;-77
2021/12/02 11:45:59;;;;;;;3.60;1.10;;;;;;;5.81;60.82;97910.75;126706;1312;108815;-76
2021/12/02 11:49:05;;;;;;;3.50;1.20;;;;;;;5.89;61.54;97916.35;126846;1313;118560;-76
2021/12/02 11:52:11;;;;;;;3.00;1.10;;;;;;;6.00;60.98;97926.33;126904;1309;108891;-77
2021/12/02 11:55:19;;;;;;;1.80;0.90;;;;;;;6.09;60.44;97928.09;126897;1307;107244;-77
2021/12/02 11:58:26;;;;;;;6.00;1.30;;;;;;;6.14;59.13;97941.02;126981;1310;108780;-77
2021/12/02 12:01:31;;;;;;;1.90;1.00;;;;;;;6.18;59.93;97935.87;126898;1309;108030;-77
2021/12/02 12:04:39;;;;;;;4.90;1.30;;;;;;;6.23;60.51;97942.20;126627;1313;108809;-76
2021/12/02 12:07:47;;;;;;;2.40;1.10;;;;;;;6.21;59.59;97948.57;126858;1312;108935;-77
2021/12/02 12:10:53;;;;;;;2.90;1.00;;;;;;;6.21;60.05;97947.19;126974;1309;108889;-76
2021/12/02 12:14:00;;;;;;;4.50;1.10;;;;;;;6.21;59.80;97953.71;126996;1312;108973;-77
2021/12/02 12:17:11;;;;;;;4.80;1.00;;;;;;;6.18;59.52;97960.20;126972;1312;109124;-76
2021/12/02 12:20:19;;;;;;;3.20;1.40;;;;;;;6.20;58.83;97959.37;126794;1313;108702;-76
2021/12/02 12:23:32;;;;;;;33.50;13.40;;;;;;;6.16;58.94;97957.34;126738;1309;108845;-76
2021/12/02 12:26:41;;;;;;;91.00;28.40;;;;;;;6.08;59.03;97963.83;126732;1312;108838;-77
2021/12/02 12:29:48;;;;;;;90.80;35.40;;;;;;;6.05;58.65;97962.12;126755;1312;108596;-76
2021/12/02 12:33:02;;;;;;;65.80;27.00;;;;;;;6.06;59.35;97959.55;126714;1312;108951;-76
2021/12/02 12:36:27;;;;;;;70.50;32.10;;;;;;;6.07;59.12;97959.21;126708;1312;108945;-77
2021/12/02 12:39:33;;;;;;;191.10;83.90;;;;;;;6.11;58.31;97967.29;126660;1309;107816;-76
2021/12/02 12:42:41;;;;;;;134.30;55.40;;;;;;;6.08;59.26;97985.42;126601;1310;108738;-77
2021/12/02 12:45:47;;;;;;;62.50;24.90;;;;;;;6.05;58.74;97985.25;126853;1312;107654;-77
2021/12/02 12:48:55;;;;;;;66.50;27.50;;;;;;;6.03;58.86;97990.46;126577;1315;108445;-76
2021/12/02 12:52:00;;;;;;;136.90;60.40;;;;;;;6.00;59.46;97996.81;126902;1307;108815;-77
2021/12/02 12:55:20;;;;;;;49.10;21.00;;;;;;;5.98;58.48;98000.86;126814;1313;109040;-76
2021/12/02 12:58:27;;;;;;;50.20;20.80;;;;;;;5.95;58.02;98009.32;128250;1312;108807;-77
2021/12/02 13:01:33;;;;;;;43.20;22.60;;;;;;;5.90;56.18;98009.16;127047;1313;109121;-76
2021/12/02 13:04:52;;;;;;;30.00;17.70;;;;;;;5.84;56.95;98022.55;126953;1309;108917;-76
2021/12/02 13:08:18;;;;;;;18.80;11.30;;;;;;;5.80;56.84;98029.56;126989;1312;108855;-77
2021/12/02 13:11:26;;;;;;;15.70;6.60;;;;;;;5.75;57.13;98022.39;126916;1308;108909;-76
2021/12/02 13:14:32;;;;;;;7.90;3.20;;;;;;;5.66;57.48;98019.91;126780;1312;108818;-76
2021/12/02 13:17:48;;;;;;;5.20;2.00;;;;;;;5.64;57.33;98021.25;126827;1313;108842;-76
2021/12/02 13:20:54;;;;;;;4.10;1.90;;;;;;;5.59;57.91;98025.61;127050;1312;108763;-76
2021/12/02 13:24:01;;;;;;;6.60;2.80;;;;;;;5.54;57.55;98023.40;127018;1307;108986;-76
2021/12/02 13:27:07;;;;;;;8.80;2.80;;;;;;;5.48;58.11;98029.52;126916;1312;108659;-76
2021/12/02 13:30:16;;;;;;;5.60;2.50;;;;;;;5.43;57.70;98026.71;126904;1312;108696;-76
2021/12/02 13:33:33;;;;;;;12.70;4.40;;;;;;;5.39;57.99;98032.48;126952;1312;107196;-77
2021/12/02 13:36:43;;;;;;;11.00;4.50;;;;;;;5.33;58.00;98041.61;126548;1313;108913;-76
2021/12/02 13:39:49;;;;;;;14.10;10.20;;;;;;;5.28;58.59;98044.83;126642;1311;109714;-77
2021/12/02 13:43:01;;;;;;;20.30;12.10;;;;;;;5.25;58.72;98046.27;126684;1312;108736;-76
2021/12/02 13:46:12;;;;;;;17.20;10.40;;;;;;;5.19;58.18;98055.58;126834;1312;109012;-77
2021/12/02 13:49:24;;;;;;;7.20;3.60;;;;;;;5.12;57.76;98057.79;126630;1307;108500;-76
2021/12/02 13:52:35;;;;;;;4.50;2.30;;;;;;;5.03;57.76;98060.17;126541;1313;108944;-76
2021/12/02 13:55:43;;;;;;;9.30;3.50;;;;;;;4.93;57.36;98070.38;126695;1310;108712;-77
2021/12/02 13:58:49;;;;;;;4.60;2.10;;;;;;;4.89;57.70;98072.84;126902;1314;108422;-76
2021/12/02 14:01:59;;;;;;;6.70;3.10;;;;;;;4.83;57.36;98071.17;126942;1316;108961;-77
2021/12/02 14:05:09;;;;;;;4.40;2.10;;;;;;;4.74;57.81;98073.38;127006;1312;109048;-77
2021/12/02 14:08:17;;;;;;;6.10;1.80;;;;;;;4.67;58.08;98074.69;126968;1312;107036;-76
2021/12/02 14:11:22;;;;;;;4.60;2.10;;;;;;;4.61;58.47;98082.13;126942;1315;108870;-77
2021/12/02 14:14:28;;;;;;;9.00;4.90;;;;;;;4.53;58.44;98087.73;126987;1314;108857;-76
2021/12/02 14:17:49;;;;;;;7.30;3.70;;;;;;;4.46;58.63;98088.52;126800;1314;108912;-76
2021/12/02 14:20:58;;;;;;;4.90;2.50;;;;;;;4.39;58.83;98092.80;126654;1313;108719;-76
2021/12/02 14:24:04;;;;;;;11.30;5.70;;;;;;;4.33;58.90;98099.21;126653;1314;108815;-76
2021/12/02 14:27:18;;;;;;;16.00;6.60;;;;;;;4.28;58.98;98105.06;126487;1307;108767;-76
2021/12/02 14:30:23;;;;;;;11.80;4.40;;;;;;;4.19;59.05;98106.98;126679;1312;108839;-78
2021/12/02 14:33:34;;;;;;;20.20;9.10;;;;;;;4.13;59.00;98110.14;126883;1312;108851;-76